sensor_id;sensor_type;location;lat;lon;timestamp;P1;durP1;ratioP1;P2;durP2;ratioP2
25345;SDS011;13300;51.032;3.710;2023-04-06T00:02:11;2.15;;;2.05;;
25345;SDS011;13300;51.032;3.710;2023-04-06T00:04:44;0.70;;;0.70;;
25345;SDS011;13300;51.032;3.710;2023-04-06T00:07:16;5.47;;;3.70;;
25345;SDS011;13300;51.032;3.710;2023-04-06T00:09:44;1.92;;;1.83;;
25345;SDS011;13300;51.032;3.710;2023-04-06T00:12:20;0.10;;;0.10;;
25345;SDS011;13300;51.032;3.710;2023-04-06T00:14:47;3.00;;;2.17;;
25345;SDS011;13300;51.032;3.710;2023-04-06T00:17:17;0.65;;;0.65;;
25345;SDS011;13300;51.032;3.710;2023-04-06T00:19:43;0.05;;;0.05;;
25345;SDS011;13300;51.032;3.710;2023-04-06T00:22:09;0.20;;;0.20;;
25345;SDS011;13300;51.032;3.710;2023-04-06T00:24:34;1.63;;;1.52;;
25345;SDS011;13300;51.032;3.710;2023-04-06T00:27:00;4.72;;;4.30;;
25345;SDS011;13300;51.032;3.710;2023-04-06T00:29:26;3.20;;;1.75;;
25345;SDS011;13300;51.032;3.710;2023-04-06T00:31:54;0.70;;;0.50;;
25345;SDS011;13300;51.032;3.710;2023-04-06T00:34:21;2.47;;;0.95;;
25345;SDS011;13300;51.032;3.710;2023-04-06T00:36:47;1.33;;;1.23;;
25345;SDS011;13300;51.032;3.710;2023-04-06T00:39:12;0.65;;;0.65;;
25345;SDS011;13300;51.032;3.710;2023-04-06T00:41:44;0.10;;;0.10;;
25345;SDS011;13300;51.032;3.710;2023-04-06T00:44:16;0.73;;;0.73;;
25345;SDS011;13300;51.032;3.710;2023-04-06T00:46:42;1.45;;;1.02;;
25345;SDS011;13300;51.032;3.710;2023-04-06T00:49:12;0.10;;;0.10;;
25345;SDS011;13300;51.032;3.710;2023-04-06T00:51:38;0.57;;;0.57;;
25345;SDS011;13300;51.032;3.710;2023-04-06T00:54:04;0.75;;;0.75;;
25345;SDS011;13300;51.032;3.710;2023-04-06T00:56:35;0.00;;;0.00;;
25345;SDS011;13300;51.032;3.710;2023-04-06T00:59:01;0.00;;;0.00;;
25345;SDS011;13300;51.032;3.710;2023-04-06T01:01:27;0.10;;;0.10;;
25345;SDS011;13300;51.032;3.710;2023-04-06T01:03:53;0.10;;;0.10;;
25345;SDS011;13300;51.032;3.710;2023-04-06T01:06:20;0.63;;;0.63;;
25345;SDS011;13300;51.032;3.710;2023-04-06T01:08:48;0.10;;;0.10;;
25345;SDS011;13300;51.032;3.710;2023-04-06T01:11:14;0.10;;;0.10;;
25345;SDS011;13300;51.032;3.710;2023-04-06T01:13:40;1.70;;;1.65;;
25345;SDS011;13300;51.032;3.710;2023-04-06T01:16:14;0.30;;;0.30;;
25345;SDS011;13300;51.032;3.710;2023-04-06T01:18:42;2.72;;;2.33;;
25345;SDS011;13300;51.032;3.710;2023-04-06T01:21:08;0.47;;;0.47;;
25345;SDS011;13300;51.032;3.710;2023-04-06T01:23:40;5.20;;;1.65;;
25345;SDS011;13300;51.032;3.710;2023-04-06T01:26:10;4.28;;;2.28;;
25345;SDS011;13300;51.032;3.710;2023-04-06T01:28:36;22.85;;;3.88;;
25345;SDS011;13300;51.032;3.710;2023-04-06T01:31:05;6.22;;;3.10;;
25345;SDS011;13300;51.032;3.710;2023-04-06T01:33:32;1.88;;;1.75;;
25345;SDS011;13300;51.032;3.710;2023-04-06T01:35:58;0.10;;;0.10;;
25345;SDS011;13300;51.032;3.710;2023-04-06T01:38:27;0.38;;;0.38;;
25345;SDS011;13300;51.032;3.710;2023-04-06T01:40:53;0.00;;;0.00;;
25345;SDS011;13300;51.032;3.710;2023-04-06T01:43:19;0.05;;;0.05;;
25345;SDS011;13300;51.032;3.710;2023-04-06T01:45:44;2.58;;;1.65;;
25345;SDS011;13300;51.032;3.710;2023-04-06T01:48:13;0.17;;;0.17;;
25345;SDS011;13300;51.032;3.710;2023-04-06T01:50:39;0.00;;;0.00;;
25345;SDS011;13300;51.032;3.710;2023-04-06T01:53:09;1.58;;;1.48;;
25345;SDS011;13300;51.032;3.710;2023-04-06T01:55:35;0.20;;;0.20;;
25345;SDS011;13300;51.032;3.710;2023-04-06T01:58:01;1.48;;;1.38;;
25345;SDS011;13300;51.032;3.710;2023-04-06T02:00:26;0.10;;;0.10;;
25345;SDS011;13300;51.032;3.710;2023-04-06T02:02:52;0.17;;;0.17;;
25345;SDS011;13300;51.032;3.710;2023-04-06T02:05:21;0.40;;;0.40;;
25345;SDS011;13300;51.032;3.710;2023-04-06T02:07:46;0.90;;;0.90;;
25345;SDS011;13300;51.032;3.710;2023-04-06T02:10:13;0.10;;;0.10;;
25345;SDS011;13300;51.032;3.710;2023-04-06T02:12:39;0.95;;;0.93;;
25345;SDS011;13300;51.032;3.710;2023-04-06T02:15:07;2.40;;;2.20;;
25345;SDS011;13300;51.032;3.710;2023-04-06T02:17:33;0.05;;;0.05;;
25345;SDS011;13300;51.032;3.710;2023-04-06T02:19:59;0.25;;;0.25;;
25345;SDS011;13300;51.032;3.710;2023-04-06T02:22:25;0.20;;;0.20;;
25345;SDS011;13300;51.032;3.710;2023-04-06T02:24:50;0.00;;;0.00;;
25345;SDS011;13300;51.032;3.710;2023-04-06T02:27:19;0.00;;;0.00;;
25345;SDS011;13300;51.032;3.710;2023-04-06T02:29:45;0.20;;;0.20;;
25345;SDS011;13300;51.032;3.710;2023-04-06T02:32:11;1.38;;;1.27;;
25345;SDS011;13300;51.032;3.710;2023-04-06T02:34:39;0.73;;;0.73;;
25345;SDS011;13300;51.032;3.710;2023-04-06T02:37:05;7.03;;;1.27;;
25345;SDS011;13300;51.032;3.710;2023-04-06T02:39:34;1.85;;;1.75;;
25345;SDS011;13300;51.032;3.710;2023-04-06T02:42:02;0.08;;;0.08;;
25345;SDS011;13300;51.032;3.710;2023-04-06T02:44:28;1.35;;;0.88;;
25345;SDS011;13300;51.032;3.710;2023-04-06T02:46:57;2.50;;;2.30;;
25345;SDS011;13300;51.032;3.710;2023-04-06T02:49:25;0.60;;;0.55;;
25345;SDS011;13300;51.032;3.710;2023-04-06T02:51:53;2.05;;;1.95;;
25345;SDS011;13300;51.032;3.710;2023-04-06T02:54:19;1.10;;;1.02;;
25345;SDS011;13300;51.032;3.710;2023-04-06T02:56:47;0.95;;;0.95;;
25345;SDS011;13300;51.032;3.710;2023-04-06T02:59:15;0.10;;;0.10;;
25345;SDS011;13300;51.032;3.710;2023-04-06T03:01:41;2.15;;;2.05;;
25345;SDS011;13300;51.032;3.710;2023-04-06T03:04:07;3.95;;;2.00;;
25345;SDS011;13300;51.032;3.710;2023-04-06T03:06:32;0.80;;;0.80;;
25345;SDS011;13300;51.032;3.710;2023-04-06T03:08:58;0.57;;;0.57;;
25345;SDS011;13300;51.032;3.710;2023-04-06T03:11:26;1.38;;;1.27;;
25345;SDS011;13300;51.032;3.710;2023-04-06T03:13:55;2.28;;;1.80;;
25345;SDS011;13300;51.032;3.710;2023-04-06T03:16:24;0.10;;;0.10;;
25345;SDS011;13300;51.032;3.710;2023-04-06T03:18:49;6.00;;;1.75;;
25345;SDS011;13300;51.032;3.710;2023-04-06T03:21:15;0.00;;;0.00;;
25345;SDS011;13300;51.032;3.710;2023-04-06T03:23:43;3.90;;;1.52;;
25345;SDS011;13300;51.032;3.710;2023-04-06T03:26:09;10.38;;;5.68;;
25345;SDS011;13300;51.032;3.710;2023-04-06T03:28:38;0.60;;;0.60;;
25345;SDS011;13300;51.032;3.710;2023-04-06T03:31:04;11.52;;;3.05;;
25345;SDS011;13300;51.032;3.710;2023-04-06T03:33:33;3.33;;;2.00;;
25345;SDS011;13300;51.032;3.710;2023-04-06T03:35:58;0.10;;;0.10;;
25345;SDS011;13300;51.032;3.710;2023-04-06T03:38:24;0.10;;;0.10;;
25345;SDS011;13300;51.032;3.710;2023-04-06T03:40:50;0.35;;;0.35;;
25345;SDS011;13300;51.032;3.710;2023-04-06T03:43:16;2.35;;;2.17;;
25345;SDS011;13300;51.032;3.710;2023-04-06T03:45:41;2.10;;;1.13;;
25345;SDS011;13300;51.032;3.710;2023-04-06T03:48:07;0.10;;;0.10;;
25345;SDS011;13300;51.032;3.710;2023-04-06T03:50:33;1.38;;;0.50;;
25345;SDS011;13300;51.032;3.710;2023-04-06T03:52:59;0.00;;;0.00;;
25345;SDS011;13300;51.032;3.710;2023-04-06T03:55:28;2.38;;;2.28;;
25345;SDS011;13300;51.032;3.710;2023-04-06T03:57:54;3.05;;;2.55;;
25345;SDS011;13300;51.032;3.710;2023-04-06T04:00:20;1.65;;;1.55;;
25345;SDS011;13300;51.032;3.710;2023-04-06T04:02:48;0.55;;;0.55;;
25345;SDS011;13300;51.032;3.710;2023-04-06T04:05:14;5.95;;;4.30;;
25345;SDS011;13300;51.032;3.710;2023-04-06T04:07:40;0.10;;;0.10;;
25345;SDS011;13300;51.032;3.710;2023-04-06T04:10:06;12.90;;;6.47;;
25345;SDS011;13300;51.032;3.710;2023-04-06T04:12:32;3.35;;;2.38;;
25345;SDS011;13300;51.032;3.710;2023-04-06T04:15:12;0.35;;;0.35;;
25345;SDS011;13300;51.032;3.710;2023-04-06T04:17:41;0.55;;;0.55;;
25345;SDS011;13300;51.032;3.710;2023-04-06T04:22:37;0.17;;;0.17;;
25345;SDS011;13300;51.032;3.710;2023-04-06T04:25:03;4.55;;;2.15;;
25345;SDS011;13300;51.032;3.710;2023-04-06T04:27:31;2.50;;;2.30;;
25345;SDS011;13300;51.032;3.710;2023-04-06T04:29:57;0.00;;;0.00;;
25345;SDS011;13300;51.032;3.710;2023-04-06T04:32:27;1.77;;;1.20;;
25345;SDS011;13300;51.032;3.710;2023-04-06T04:34:53;0.00;;;0.00;;
25345;SDS011;13300;51.032;3.710;2023-04-06T04:37:27;0.80;;;0.50;;
25345;SDS011;13300;51.032;3.710;2023-04-06T04:39:52;2.70;;;0.82;;
25345;SDS011;13300;51.032;3.710;2023-04-06T04:42:18;3.38;;;1.15;;
25345;SDS011;13300;51.032;3.710;2023-04-06T04:44:44;0.80;;;0.57;;
25345;SDS011;13300;51.032;3.710;2023-04-06T04:47:13;1.95;;;0.82;;
25345;SDS011;13300;51.032;3.710;2023-04-06T04:49:41;0.00;;;0.00;;
25345;SDS011;13300;51.032;3.710;2023-04-06T04:52:09;0.10;;;0.10;;
25345;SDS011;13300;51.032;3.710;2023-04-06T04:54:37;1.58;;;1.25;;
25345;SDS011;13300;51.032;3.710;2023-04-06T04:57:05;0.75;;;0.73;;
25345;SDS011;13300;51.032;3.710;2023-04-06T04:59:31;5.15;;;3.20;;
25345;SDS011;13300;51.032;3.710;2023-04-06T05:01:58;1.52;;;1.35;;
25345;SDS011;13300;51.032;3.710;2023-04-06T05:04:26;0.15;;;0.15;;
25345;SDS011;13300;51.032;3.710;2023-04-06T05:07:07;4.20;;;3.10;;
25345;SDS011;13300;51.032;3.710;2023-04-06T05:09:34;2.20;;;1.42;;
25345;SDS011;13300;51.032;3.710;2023-04-06T05:12:00;12.85;;;7.47;;
25345;SDS011;13300;51.032;3.710;2023-04-06T05:14:27;1.55;;;1.17;;
25345;SDS011;13300;51.032;3.710;2023-04-06T05:16:53;11.85;;;5.97;;
25345;SDS011;13300;51.032;3.710;2023-04-06T05:19:22;2.08;;;1.80;;
25345;SDS011;13300;51.032;3.710;2023-04-06T05:21:48;2.35;;;1.17;;
25345;SDS011;13300;51.032;3.710;2023-04-06T05:24:17;3.05;;;2.67;;
25345;SDS011;13300;51.032;3.710;2023-04-06T05:26:43;4.95;;;1.88;;
25345;SDS011;13300;51.032;3.710;2023-04-06T05:29:10;1.75;;;1.45;;
25345;SDS011;13300;51.032;3.710;2023-04-06T05:31:36;5.28;;;2.95;;
25345;SDS011;13300;51.032;3.710;2023-04-06T05:34:02;2.33;;;2.17;;
25345;SDS011;13300;51.032;3.710;2023-04-06T05:36:27;24.85;;;9.27;;
25345;SDS011;13300;51.032;3.710;2023-04-06T05:38:53;3.92;;;1.08;;
25345;SDS011;13300;51.032;3.710;2023-04-06T05:41:20;9.73;;;4.03;;
25345;SDS011;13300;51.032;3.710;2023-04-06T05:43:45;10.80;;;5.32;;
25345;SDS011;13300;51.032;3.710;2023-04-06T05:46:11;2.22;;;0.85;;
25345;SDS011;13300;51.032;3.710;2023-04-06T05:48:37;0.22;;;0.22;;
25345;SDS011;13300;51.032;3.710;2023-04-06T05:51:03;17.67;;;7.63;;
25345;SDS011;13300;51.032;3.710;2023-04-06T05:53:34;1.23;;;0.95;;
25345;SDS011;13300;51.032;3.710;2023-04-06T05:56:03;0.10;;;0.10;;
25345;SDS011;13300;51.032;3.710;2023-04-06T05:58:29;18.45;;;7.85;;
25345;SDS011;13300;51.032;3.710;2023-04-06T06:00:58;0.10;;;0.10;;
25345;SDS011;13300;51.032;3.710;2023-04-06T06:03:31;1.10;;;0.75;;
25345;SDS011;13300;51.032;3.710;2023-04-06T06:06:01;1.17;;;1.00;;
25345;SDS011;13300;51.032;3.710;2023-04-06T06:08:46;0.43;;;0.30;;
25345;SDS011;13300;51.032;3.710;2023-04-06T06:11:11;8.00;;;2.90;;
25345;SDS011;13300;51.032;3.710;2023-04-06T06:13:37;10.52;;;4.40;;
25345;SDS011;13300;51.032;3.710;2023-04-06T06:16:06;7.22;;;2.75;;
25345;SDS011;13300;51.032;3.710;2023-04-06T06:18:33;8.35;;;3.78;;
25345;SDS011;13300;51.032;3.710;2023-04-06T06:20:59;2.30;;;1.80;;
25345;SDS011;13300;51.032;3.710;2023-04-06T06:23:27;0.85;;;0.85;;
25345;SDS011;13300;51.032;3.710;2023-04-06T06:26:23;8.27;;;4.90;;
25345;SDS011;13300;51.032;3.710;2023-04-06T06:29:36;1.77;;;1.65;;
25345;SDS011;13300;51.032;3.710;2023-04-06T06:32:50;11.93;;;6.03;;
25345;SDS011;13300;51.032;3.710;2023-04-06T06:35:25;7.78;;;3.42;;
25345;SDS011;13300;51.032;3.710;2023-04-06T06:38:14;2.22;;;1.80;;
25345;SDS011;13300;51.032;3.710;2023-04-06T06:40:40;7.57;;;5.43;;
25345;SDS011;13300;51.032;3.710;2023-04-06T06:43:47;0.82;;;0.75;;
25345;SDS011;13300;51.032;3.710;2023-04-06T06:46:15;5.47;;;0.73;;
25345;SDS011;13300;51.032;3.710;2023-04-06T06:49:48;4.55;;;2.80;;
25345;SDS011;13300;51.032;3.710;2023-04-06T06:52:18;11.73;;;6.60;;
25345;SDS011;13300;51.032;3.710;2023-04-06T06:54:47;4.30;;;2.55;;
25345;SDS011;13300;51.032;3.710;2023-04-06T06:57:13;11.77;;;5.47;;
25345;SDS011;13300;51.032;3.710;2023-04-06T06:59:38;7.80;;;3.22;;
25345;SDS011;13300;51.032;3.710;2023-04-06T07:02:08;4.95;;;2.13;;
25345;SDS011;13300;51.032;3.710;2023-04-06T07:04:34;2.08;;;1.45;;
25345;SDS011;13300;51.032;3.710;2023-04-06T07:07:00;2.30;;;1.27;;
25345;SDS011;13300;51.032;3.710;2023-04-06T07:09:29;2.25;;;2.05;;
25345;SDS011;13300;51.032;3.710;2023-04-06T07:12:17;5.57;;;2.75;;
25345;SDS011;13300;51.032;3.710;2023-04-06T07:15:04;4.78;;;1.77;;
25345;SDS011;13300;51.032;3.710;2023-04-06T07:17:31;5.57;;;3.33;;
25345;SDS011;13300;51.032;3.710;2023-04-06T07:19:59;3.50;;;1.92;;
25345;SDS011;13300;51.032;3.710;2023-04-06T07:22:25;2.78;;;1.52;;
25345;SDS011;13300;51.032;3.710;2023-04-06T07:24:51;0.65;;;0.65;;
25345;SDS011;13300;51.032;3.710;2023-04-06T07:27:18;8.00;;;4.50;;
25345;SDS011;13300;51.032;3.710;2023-04-06T07:29:44;3.60;;;2.72;;
25345;SDS011;13300;51.032;3.710;2023-04-06T07:32:11;1.02;;;1.02;;
25345;SDS011;13300;51.032;3.710;2023-04-06T07:34:39;2.03;;;1.55;;
25345;SDS011;13300;51.032;3.710;2023-04-06T07:37:05;3.15;;;2.55;;
25345;SDS011;13300;51.032;3.710;2023-04-06T07:39:31;4.80;;;2.10;;
25345;SDS011;13300;51.032;3.710;2023-04-06T07:41:57;5.20;;;3.10;;
25345;SDS011;13300;51.032;3.710;2023-04-06T07:44:22;2.60;;;1.38;;
25345;SDS011;13300;51.032;3.710;2023-04-06T07:46:51;5.35;;;2.78;;
25345;SDS011;13300;51.032;3.710;2023-04-06T07:49:18;5.60;;;2.05;;
25345;SDS011;13300;51.032;3.710;2023-04-06T07:51:46;6.75;;;1.58;;
25345;SDS011;13300;51.032;3.710;2023-04-06T07:54:12;2.95;;;1.95;;
25345;SDS011;13300;51.032;3.710;2023-04-06T07:56:39;0.70;;;0.65;;
25345;SDS011;13300;51.032;3.710;2023-04-06T07:59:05;4.28;;;3.08;;
25345;SDS011;13300;51.032;3.710;2023-04-06T08:01:33;17.40;;;8.00;;
25345;SDS011;13300;51.032;3.710;2023-04-06T08:03:59;16.85;;;9.18;;
25345;SDS011;13300;51.032;3.710;2023-04-06T08:06:27;6.43;;;3.08;;
25345;SDS011;13300;51.032;3.710;2023-04-06T08:08:53;4.65;;;2.50;;
25345;SDS011;13300;51.032;3.710;2023-04-06T08:11:21;8.98;;;5.43;;
25345;SDS011;13300;51.032;3.710;2023-04-06T08:13:46;19.50;;;11.50;;
25345;SDS011;13300;51.032;3.710;2023-04-06T08:16:18;6.13;;;3.10;;
25345;SDS011;13300;51.032;3.710;2023-04-06T08:18:44;4.85;;;3.22;;
25345;SDS011;13300;51.032;3.710;2023-04-06T08:21:11;7.82;;;3.92;;
25345;SDS011;13300;51.032;3.710;2023-04-06T08:23:37;7.82;;;4.93;;
25345;SDS011;13300;51.032;3.710;2023-04-06T08:26:03;3.17;;;2.42;;
25345;SDS011;13300;51.032;3.710;2023-04-06T08:28:30;8.90;;;2.63;;
25345;SDS011;13300;51.032;3.710;2023-04-06T08:30:59;2.53;;;2.35;;
25345;SDS011;13300;51.032;3.710;2023-04-06T08:33:31;7.30;;;3.47;;
25345;SDS011;13300;51.032;3.710;2023-04-06T08:36:10;14.63;;;8.65;;
25345;SDS011;13300;51.032;3.710;2023-04-06T08:38:37;8.68;;;4.53;;
25345;SDS011;13300;51.032;3.710;2023-04-06T08:41:09;1.02;;;0.95;;
25345;SDS011;13300;51.032;3.710;2023-04-06T08:43:58;11.10;;;5.75;;
25345;SDS011;13300;51.032;3.710;2023-04-06T08:46:26;2.67;;;1.55;;
25345;SDS011;13300;51.032;3.710;2023-04-06T08:48:55;0.38;;;0.38;;
25345;SDS011;13300;51.032;3.710;2023-04-06T08:51:25;4.82;;;2.47;;
25345;SDS011;13300;51.032;3.710;2023-04-06T08:56:22;8.40;;;4.65;;
25345;SDS011;13300;51.032;3.710;2023-04-06T08:58:48;4.38;;;2.38;;
25345;SDS011;13300;51.032;3.710;2023-04-06T09:01:18;5.03;;;2.78;;
25345;SDS011;13300;51.032;3.710;2023-04-06T09:03:48;0.63;;;0.63;;
25345;SDS011;13300;51.032;3.710;2023-04-06T09:06:20;1.33;;;1.23;;
25345;SDS011;13300;51.032;3.710;2023-04-06T09:08:46;20.40;;;12.25;;
25345;SDS011;13300;51.032;3.710;2023-04-06T09:11:12;21.98;;;12.68;;
25345;SDS011;13300;51.032;3.710;2023-04-06T09:13:45;25.73;;;11.90;;
25345;SDS011;13300;51.032;3.710;2023-04-06T09:16:11;19.02;;;10.73;;
25345;SDS011;13300;51.032;3.710;2023-04-06T09:18:37;3.95;;;1.73;;
25345;SDS011;13300;51.032;3.710;2023-04-06T09:21:04;2.65;;;1.67;;
25345;SDS011;13300;51.032;3.710;2023-04-06T09:23:35;22.63;;;13.43;;
25345;SDS011;13300;51.032;3.710;2023-04-06T09:26:11;24.98;;;13.50;;
25345;SDS011;13300;51.032;3.710;2023-04-06T09:31:10;29.42;;;16.10;;
25345;SDS011;13300;51.032;3.710;2023-04-06T09:33:55;29.15;;;15.90;;
25345;SDS011;13300;51.032;3.710;2023-04-06T09:36:30;24.30;;;13.80;;
25345;SDS011;13300;51.032;3.710;2023-04-06T09:38:58;27.33;;;15.32;;
25345;SDS011;13300;51.032;3.710;2023-04-06T09:41:28;3.13;;;1.50;;
25345;SDS011;13300;51.032;3.710;2023-04-06T09:44:11;28.83;;;16.65;;
25345;SDS011;13300;51.032;3.710;2023-04-06T09:46:38;22.98;;;12.45;;
25345;SDS011;13300;51.032;3.710;2023-04-06T09:49:09;27.25;;;13.52;;
25345;SDS011;13300;51.032;3.710;2023-04-06T09:54:29;25.98;;;14.80;;
25345;SDS011;13300;51.032;3.710;2023-04-06T09:59:50;24.83;;;12.55;;
25345;SDS011;13300;51.032;3.710;2023-04-06T10:05:33;26.77;;;14.63;;
25345;SDS011;13300;51.032;3.710;2023-04-06T10:08:19;28.17;;;16.50;;
25345;SDS011;13300;51.032;3.710;2023-04-06T10:14:02;25.27;;;14.73;;
25345;SDS011;13300;51.032;3.710;2023-04-06T10:16:31;29.30;;;16.45;;
25345;SDS011;13300;51.032;3.710;2023-04-06T10:19:21;28.80;;;17.50;;
25345;SDS011;13300;51.032;3.710;2023-04-06T10:21:48;29.48;;;17.52;;
25345;SDS011;13300;51.032;3.710;2023-04-06T10:24:30;28.65;;;18.25;;
25345;SDS011;13300;51.032;3.710;2023-04-06T10:27:02;28.40;;;15.93;;
25345;SDS011;13300;51.032;3.710;2023-04-06T10:29:47;27.02;;;16.33;;
25345;SDS011;13300;51.032;3.710;2023-04-06T10:32:16;26.60;;;15.75;;
25345;SDS011;13300;51.032;3.710;2023-04-06T10:34:42;27.92;;;16.17;;
25345;SDS011;13300;51.032;3.710;2023-04-06T10:37:10;26.88;;;15.88;;
25345;SDS011;13300;51.032;3.710;2023-04-06T10:39:52;28.55;;;16.92;;
25345;SDS011;13300;51.032;3.710;2023-04-06T10:42:24;27.08;;;16.30;;
25345;SDS011;13300;51.032;3.710;2023-04-06T10:44:50;23.73;;;12.10;;
25345;SDS011;13300;51.032;3.710;2023-04-06T10:47:17;22.90;;;13.77;;
25345;SDS011;13300;51.032;3.710;2023-04-06T10:49:43;23.02;;;15.10;;
25345;SDS011;13300;51.032;3.710;2023-04-06T10:52:09;23.10;;;14.55;;
25345;SDS011;13300;51.032;3.710;2023-04-06T10:54:34;24.42;;;15.63;;
25345;SDS011;13300;51.032;3.710;2023-04-06T10:57:08;24.95;;;14.85;;
25345;SDS011;13300;51.032;3.710;2023-04-06T10:59:34;22.13;;;13.80;;
25345;SDS011;13300;51.032;3.710;2023-04-06T11:02:00;23.83;;;14.65;;
25345;SDS011;13300;51.032;3.710;2023-04-06T11:04:29;22.17;;;12.52;;
25345;SDS011;13300;51.032;3.710;2023-04-06T11:06:58;23.00;;;14.10;;
25345;SDS011;13300;51.032;3.710;2023-04-06T11:09:28;15.85;;;9.43;;
25345;SDS011;13300;51.032;3.710;2023-04-06T11:11:56;19.80;;;13.65;;
25345;SDS011;13300;51.032;3.710;2023-04-06T11:14:24;19.88;;;12.25;;
25345;SDS011;13300;51.032;3.710;2023-04-06T11:16:51;20.42;;;13.98;;
25345;SDS011;13300;51.032;3.710;2023-04-06T11:19:17;18.95;;;12.45;;
25345;SDS011;13300;51.032;3.710;2023-04-06T11:21:44;17.65;;;12.60;;
25345;SDS011;13300;51.032;3.710;2023-04-06T11:26:45;18.52;;;11.63;;
25345;SDS011;13300;51.032;3.710;2023-04-06T11:29:20;20.42;;;12.40;;
25345;SDS011;13300;51.032;3.710;2023-04-06T11:31:48;16.15;;;11.88;;
25345;SDS011;13300;51.032;3.710;2023-04-06T11:34:21;17.75;;;12.18;;
25345;SDS011;13300;51.032;3.710;2023-04-06T11:36:55;18.67;;;11.85;;
25345;SDS011;13300;51.032;3.710;2023-04-06T11:39:22;15.75;;;10.95;;
25345;SDS011;13300;51.032;3.710;2023-04-06T11:41:50;19.40;;;13.18;;
25345;SDS011;13300;51.032;3.710;2023-04-06T11:44:43;20.48;;;13.55;;
25345;SDS011;13300;51.032;3.710;2023-04-06T11:47:19;17.95;;;13.38;;
25345;SDS011;13300;51.032;3.710;2023-04-06T11:49:55;20.33;;;13.10;;
25345;SDS011;13300;51.032;3.710;2023-04-06T11:52:34;18.65;;;12.48;;
25345;SDS011;13300;51.032;3.710;2023-04-06T11:58:16;18.60;;;12.85;;
25345;SDS011;13300;51.032;3.710;2023-04-06T12:10:58;22.27;;;14.10;;
25345;SDS011;13300;51.032;3.710;2023-04-06T12:13:27;23.35;;;16.02;;
25345;SDS011;13300;51.032;3.710;2023-04-06T12:16:03;25.00;;;16.85;;
25345;SDS011;13300;51.032;3.710;2023-04-06T12:18:32;25.88;;;17.00;;
25345;SDS011;13300;51.032;3.710;2023-04-06T12:21:01;25.48;;;17.58;;
25345;SDS011;13300;51.032;3.710;2023-04-06T12:23:38;26.30;;;17.02;;
25345;SDS011;13300;51.032;3.710;2023-04-06T12:26:11;26.98;;;18.52;;
25345;SDS011;13300;51.032;3.710;2023-04-06T12:37:15;28.85;;;18.80;;
25345;SDS011;13300;51.032;3.710;2023-04-06T12:39:48;29.38;;;19.77;;
25345;SDS011;13300;51.032;3.710;2023-04-06T12:42:15;28.17;;;18.92;;
25345;SDS011;13300;51.032;3.710;2023-04-06T12:44:49;27.13;;;19.45;;
25345;SDS011;13300;51.032;3.710;2023-04-06T12:47:25;31.40;;;19.42;;
25345;SDS011;13300;51.032;3.710;2023-04-06T12:49:54;28.30;;;19.55;;
25345;SDS011;13300;51.032;3.710;2023-04-06T12:52:19;28.30;;;18.95;;
25345;SDS011;13300;51.032;3.710;2023-04-06T12:54:45;27.98;;;18.48;;
25345;SDS011;13300;51.032;3.710;2023-04-06T12:57:12;27.63;;;18.63;;
25345;SDS011;13300;51.032;3.710;2023-04-06T12:59:38;30.67;;;18.50;;
25345;SDS011;13300;51.032;3.710;2023-04-06T13:02:04;28.40;;;18.60;;
25345;SDS011;13300;51.032;3.710;2023-04-06T13:04:32;13.15;;;8.23;;
25345;SDS011;13300;51.032;3.710;2023-04-06T13:06:58;28.23;;;19.13;;
25345;SDS011;13300;51.032;3.710;2023-04-06T13:09:24;30.90;;;19.63;;
25345;SDS011;13300;51.032;3.710;2023-04-06T13:11:50;28.35;;;18.15;;
25345;SDS011;13300;51.032;3.710;2023-04-06T13:14:16;28.95;;;20.60;;
25345;SDS011;13300;51.032;3.710;2023-04-06T13:16:42;30.50;;;19.38;;
25345;SDS011;13300;51.032;3.710;2023-04-06T13:19:08;30.23;;;20.25;;
25345;SDS011;13300;51.032;3.710;2023-04-06T13:21:37;26.90;;;20.23;;
25345;SDS011;13300;51.032;3.710;2023-04-06T13:24:08;31.20;;;20.25;;
25345;SDS011;13300;51.032;3.710;2023-04-06T13:26:36;30.23;;;19.77;;
25345;SDS011;13300;51.032;3.710;2023-04-06T13:29:07;26.75;;;19.45;;
25345;SDS011;13300;51.032;3.710;2023-04-06T13:31:43;26.92;;;18.80;;
25345;SDS011;13300;51.032;3.710;2023-04-06T13:34:09;29.30;;;19.33;;
25345;SDS011;13300;51.032;3.710;2023-04-06T13:36:38;28.10;;;19.65;;
25345;SDS011;13300;51.032;3.710;2023-04-06T13:39:10;28.83;;;19.33;;
25345;SDS011;13300;51.032;3.710;2023-04-06T13:41:48;32.15;;;20.85;;
25345;SDS011;13300;51.032;3.710;2023-04-06T13:44:16;31.13;;;20.70;;
25345;SDS011;13300;51.032;3.710;2023-04-06T13:46:59;30.70;;;20.85;;
25345;SDS011;13300;51.032;3.710;2023-04-06T13:52:30;32.55;;;21.65;;
25345;SDS011;13300;51.032;3.710;2023-04-06T13:55:07;34.70;;;23.08;;
25345;SDS011;13300;51.032;3.710;2023-04-06T13:57:33;38.53;;;24.40;;
25345;SDS011;13300;51.032;3.710;2023-04-06T14:00:09;30.45;;;22.67;;
25345;SDS011;13300;51.032;3.710;2023-04-06T14:02:39;37.22;;;23.77;;
25345;SDS011;13300;51.032;3.710;2023-04-06T14:05:09;33.67;;;21.40;;
25345;SDS011;13300;51.032;3.710;2023-04-06T14:08:01;36.22;;;22.90;;
25345;SDS011;13300;51.032;3.710;2023-04-06T14:10:36;33.70;;;23.08;;
25345;SDS011;13300;51.032;3.710;2023-04-06T14:13:31;32.95;;;20.85;;
25345;SDS011;13300;51.032;3.710;2023-04-06T14:16:23;38.40;;;21.85;;
25345;SDS011;13300;51.032;3.710;2023-04-06T14:19:19;37.50;;;22.02;;
25345;SDS011;13300;51.032;3.710;2023-04-06T14:21:50;37.72;;;20.88;;
25345;SDS011;13300;51.032;3.710;2023-04-06T14:24:33;38.60;;;21.95;;
25345;SDS011;13300;51.032;3.710;2023-04-06T14:27:04;35.15;;;21.48;;
25345;SDS011;13300;51.032;3.710;2023-04-06T14:29:30;38.22;;;21.30;;
25345;SDS011;13300;51.032;3.710;2023-04-06T14:32:03;39.55;;;20.70;;
25345;SDS011;13300;51.032;3.710;2023-04-06T14:34:36;33.83;;;20.42;;
25345;SDS011;13300;51.032;3.710;2023-04-06T14:37:13;38.50;;;20.75;;
25345;SDS011;13300;51.032;3.710;2023-04-06T14:39:42;45.28;;;22.70;;
25345;SDS011;13300;51.032;3.710;2023-04-06T14:42:13;36.30;;;19.92;;
25345;SDS011;13300;51.032;3.710;2023-04-06T14:45:01;36.03;;;20.50;;
25345;SDS011;13300;51.032;3.710;2023-04-06T14:47:55;29.95;;;19.90;;
25345;SDS011;13300;51.032;3.710;2023-04-06T14:50:29;33.17;;;19.63;;
25345;SDS011;13300;51.032;3.710;2023-04-06T14:53:11;34.40;;;20.05;;
25345;SDS011;13300;51.032;3.710;2023-04-06T14:55:39;34.05;;;19.25;;
25345;SDS011;13300;51.032;3.710;2023-04-06T14:58:16;31.02;;;19.88;;
25345;SDS011;13300;51.032;3.710;2023-04-06T15:00:45;32.42;;;19.08;;
25345;SDS011;13300;51.032;3.710;2023-04-06T15:03:40;33.90;;;19.65;;
25345;SDS011;13300;51.032;3.710;2023-04-06T15:09:44;32.22;;;18.88;;
25345;SDS011;13300;51.032;3.710;2023-04-06T15:12:37;26.27;;;16.95;;
25345;SDS011;13300;51.032;3.710;2023-04-06T15:15:35;33.13;;;17.92;;
25345;SDS011;13300;51.032;3.710;2023-04-06T15:18:11;29.60;;;17.00;;
25345;SDS011;13300;51.032;3.710;2023-04-06T15:20:45;27.38;;;15.10;;
25345;SDS011;13300;51.032;3.710;2023-04-06T15:26:20;27.55;;;11.57;;
25345;SDS011;13300;51.032;3.710;2023-04-06T15:29:10;20.73;;;8.30;;
25345;SDS011;13300;51.032;3.710;2023-04-06T15:31:36;22.80;;;7.07;;
25345;SDS011;13300;51.032;3.710;2023-04-06T15:40:01;16.85;;;4.57;;
25345;SDS011;13300;51.032;3.710;2023-04-06T15:42:44;22.42;;;4.88;;
25345;SDS011;13300;51.032;3.710;2023-04-06T15:45:11;19.92;;;5.05;;
25345;SDS011;13300;51.032;3.710;2023-04-06T15:47:40;17.73;;;4.82;;
25345;SDS011;13300;51.032;3.710;2023-04-06T15:50:13;25.70;;;6.22;;
25345;SDS011;13300;51.032;3.710;2023-04-06T15:52:39;21.48;;;5.65;;
25345;SDS011;13300;51.032;3.710;2023-04-06T15:55:10;19.52;;;5.75;;
25345;SDS011;13300;51.032;3.710;2023-04-06T15:57:39;26.30;;;6.63;;